Time,TemperatureF,DewpointF,PressureIn,WindDirection,WindDirectionDegrees,WindSpeedMPH,WindSpeedGustMPH,Humidity,HourlyPrecipIn,Conditions,Clouds,dailyrainin,SolarRadiationWatts/m^2,SoftwareType,DateUTC
2013-06-24 00:00:00,69.3,63.6,30.03,SSE,161,1.0,10.0,82,0.00,,---,0.00,0.00,VWS V14.00,2013-06-24 04:00:00,
2013-06-24 00:01:00,66.8,64.1,29.94,NNE,21,0.0,1.0,91,0.00,,---,0.58,0.00,VWS V14.00,2013-06-24 04:01:00,
2013-06-24 00:06:00,66.8,64.4,29.95,NNE,21,0.0,1.0,92,0.00,,---,0.58,0.00,VWS V14.00,2013-06-24 04:06:00,
2013-06-24 00:11:00,66.8,64.4,29.95,NNE,21,0.0,3.0,92,0.00,,---,0.58,0.00,VWS V14.00,2013-06-24 04:11:00,
2013-06-24 00:16:00,66.7,64.3,29.95,NNE,21,0.0,0.0,92,0.00,,---,0.58,0.00,VWS V14.00,2013-06-24 04:16:00,
2013-06-24 00:21:00,66.6,64.2,29.95,NNE,21,0.0,1.0,92,0.00,,---,0.58,0.00,VWS V14.00,2013-06-24 04:21:00,
2013-06-24 00:26:00,66.7,64.3,29.94,SSE,149,0.0,4.0,92,0.00,,---,0.58,0.00,VWS V14.00,2013-06-24 04:26:00,
2013-06-24 00:30:00,69.9,63.8,30.02,SSW,196,0.0,9.0,81,0.00,,---,0.00,0.00,VWS V14.00,2013-06-24 04:30:00,
2013-06-24 00:31:00,66.8,64.4,29.94,SSW,204,2.0,6.0,92,0.00,,---,0.58,0.00,VWS V14.00,2013-06-24 04:31:00,
2013-06-24 00:36:00,67.3,64.9,29.94,South,170,0.0,7.0,92,0.00,,---,0.58,0.00,VWS V14.00,2013-06-24 04:36:00,
2013-06-24 00:41:00,67.6,64.9,29.94,South,175,0.0,7.0,91,0.00,,---,0.58,0.00,VWS V14.00,2013-06-24 04:41:00,
2013-06-24 00:46:00,68.3,64.9,29.94,South,174,1.0,2.0,89,0.00,,---,0.58,0.00,VWS V14.00,2013-06-24 04:46:00,
2013-06-24 00:51:00,68.9,64.9,29.93,South,190,3.0,7.0,87,0.00,,---,0.58,0.00,VWS V14.00,2013-06-24 04:51:00,
2013-06-24 00:56:00,69.3,64.9,29.94,South,171,3.0,7.0,86,0.00,,---,0.58,0.00,VWS V14.00,2013-06-24 04:56:00,
2013-06-24 01:00:00,69.8,63.4,30.01,SSW,194,3.0,8.0,80,0.00,,---,0.00,0.00,VWS V14.00,2013-06-24 05:00:00,
2013-06-24 01:01:00,69.4,64.7,29.93,South,178,2.0,7.0,85,0.00,,---,0.58,0.00,VWS V14.00,2013-06-24 05:01:00,
2013-06-24 01:06:00,69.2,64.5,29.94,NE,36,2.0,7.0,85,0.00,,---,0.58,0.00,VWS V14.00,2013-06-24 05:06:00,
2013-06-24 01:11:00,68.8,64.4,29.94,NE,43,1.0,7.0,86,0.00,,---,0.58,0.00,VWS V14.00,2013-06-24 05:11:00,
2013-06-24 01:16:00,68.3,64.0,29.93,NE,43,0.0,2.0,86,0.00,,---,0.58,0.00,VWS V14.00,2013-06-24 05:16:00,
2013-06-24 01:21:00,67.9,63.9,29.93,NE,43,0.0,2.0,87,0.00,,---,0.58,0.00,VWS V14.00,2013-06-24 05:21:00,
2013-06-24 01:26:00,67.5,63.8,29.93,NE,41,2.0,3.0,88,0.00,,---,0.58,0.00,VWS V14.00,2013-06-24 05:26:00,
2013-06-24 01:30:00,68.1,63.1,30.01,NE,37,3.0,5.0,84,0.00,,---,0.00,0.00,VWS V14.00,2013-06-24 05:30:00,
2013-06-24 01:31:00,67.2,63.5,29.93,NE,41,1.0,3.0,88,0.00,,---,0.58,0.00,VWS V14.00,2013-06-24 05:31:00,
2013-06-24 01:36:00,67.0,63.3,29.93,NNE,30,0.0,4.0,88,0.00,,---,0.58,0.00,VWS V14.00,2013-06-24 05:36:00,
2013-06-24 01:41:00,66.7,63.4,29.93,NE,42,0.0,4.0,89,0.00,,---,0.58,0.00,VWS V14.00,2013-06-24 05:41:00,
2013-06-24 01:46:00,66.5,63.2,29.93,NE,42,1.0,1.0,89,0.00,,---,0.58,0.00,VWS V14.00,2013-06-24 05:46:00,
2013-06-24 01:51:00,66.3,63.3,29.93,NE,42,0.0,3.0,90,0.00,,---,0.58,0.00,VWS V14.00,2013-06-24 05:51:00,
2013-06-24 01:56:00,66.1,63.1,29.93,NE,42,1.0,3.0,90,0.00,,---,0.58,0.00,VWS V14.00,2013-06-24 05:56:00,
2013-06-24 02:00:00,67.0,63.0,30.02,West,280,0.0,3.0,87,0.06,,---,0.06,0.00,VWS V14.00,2013-06-24 06:00:00,
2013-06-24 02:01:00,66.1,63.1,29.93,NNE,18,3.0,4.0,90,0.00,,---,0.58,0.00,VWS V14.00,2013-06-24 06:01:00,
2013-06-24 02:06:00,66.0,63.0,29.93,NE,43,0.0,4.0,90,0.00,,---,0.58,0.00,VWS V14.00,2013-06-24 06:06:00,
2013-06-24 02:11:00,65.9,62.9,29.93,NNE,32,2.0,4.0,90,0.00,,---,0.58,0.00,VWS V14.00,2013-06-24 06:11:00,
2013-06-24 02:17:00,65.8,62.8,29.93,NNE,28,2.0,4.0,90,0.00,,---,0.00,0.00,VWS V14.00,2013-06-24 06:17:00,
2013-06-24 02:22:00,65.8,63.1,29.93,NNE,28,2.0,4.0,91,0.00,,---,0.00,0.00,VWS V14.00,2013-06-24 06:22:00,
2013-06-24 02:27:00,65.8,63.1,29.93,NNE,28,0.0,4.0,91,0.00,,---,0.00,0.00,VWS V14.00,2013-06-24 06:27:00,
2013-06-24 02:30:00,66.3,63.0,30.02,NE,49,0.0,4.0,89,0.06,,---,0.06,0.00,VWS V14.00,2013-06-24 06:30:00,
2013-06-24 02:32:00,65.7,63.0,29.93,NNE,28,0.0,4.0,91,0.00,,---,0.00,0.00,VWS V14.00,2013-06-24 06:32:00,
2013-06-24 02:37:00,65.7,63.0,29.93,NNE,28,2.0,4.0,91,0.00,,---,0.00,0.00,VWS V14.00,2013-06-24 06:37:00,
2013-06-24 02:42:00,65.6,62.9,29.93,NNE,28,2.0,4.0,91,0.00,,---,0.00,0.00,VWS V14.00,2013-06-24 06:42:00,
2013-06-24 02:47:00,65.5,62.8,29.93,NNE,27,0.0,2.0,91,0.00,,---,0.00,0.00,VWS V14.00,2013-06-24 06:47:00,
2013-06-24 02:52:00,65.4,62.7,29.93,NNE,27,3.0,4.0,91,0.00,,---,0.00,0.00,VWS V14.00,2013-06-24 06:52:00,
2013-06-24 02:57:00,65.4,62.7,29.93,NNE,27,0.0,4.0,91,0.00,,---,0.00,0.00,VWS V14.00,2013-06-24 06:57:00,
2013-06-24 03:00:00,66.1,63.1,30.03,NNE,15,2.0,3.0,90,0.10,,---,0.10,0.00,VWS V14.00,2013-06-24 07:00:00,
2013-06-24 03:02:00,65.4,62.7,29.93,NNE,27,0.0,4.0,91,0.00,,---,0.00,0.00,VWS V14.00,2013-06-24 07:02:00,
2013-06-24 03:07:00,65.3,62.6,29.93,NNE,27,1.0,4.0,91,0.00,,---,0.00,0.00,VWS V14.00,2013-06-24 07:07:00,
2013-06-24 03:12:00,65.3,62.6,29.93,NNE,27,0.0,4.0,91,0.00,,---,0.00,0.00,VWS V14.00,2013-06-24 07:12:00,
2013-06-24 03:17:00,65.4,62.7,29.93,NNE,27,3.0,3.0,91,0.00,,---,0.00,0.00,VWS V14.00,2013-06-24 07:17:00,
2013-06-24 03:23:00,65.4,62.7,29.92,NE,53,2.0,6.0,91,0.00,,---,0.00,0.00,VWS V14.00,2013-06-24 07:23:00,
2013-06-24 03:28:00,65.4,62.7,29.92,NNE,12,3.0,6.0,91,0.00,,---,0.00,0.00,VWS V14.00,2013-06-24 07:28:00,
2013-06-24 03:30:00,66.0,63.3,30.03,East,82,1.0,6.0,91,0.18,,---,0.24,11.00,VWS V14.00,2013-06-24 07:30:00,
2013-06-24 03:33:00,65.4,62.7,29.92,NNE,22,2.0,6.0,91,0.00,,---,0.00,0.00,VWS V14.00,2013-06-24 07:33:00,
2013-06-24 03:38:00,65.3,62.6,29.92,NNE,19,4.0,6.0,91,0.00,,---,0.00,0.00,VWS V14.00,2013-06-24 07:38:00,
2013-06-24 03:43:00,65.4,62.7,29.92,NE,48,1.0,6.0,91,0.00,,---,0.00,0.00,VWS V14.00,2013-06-24 07:43:00,
2013-06-24 03:48:00,65.4,62.7,29.92,North,11,0.0,4.0,91,0.00,,---,0.00,0.00,VWS V14.00,2013-06-24 07:48:00,
2013-06-24 03:53:00,65.5,62.8,29.92,NE,54,2.0,4.0,91,0.00,,---,0.00,0.00,VWS V14.00,2013-06-24 07:53:00,
2013-06-24 03:58:00,65.5,62.8,29.92,NE,45,1.0,4.0,91,0.00,,---,0.00,0.00,VWS V14.00,2013-06-24 07:58:00,
2013-06-24 04:00:00,66.1,63.4,30.04,ENE,69,0.0,8.0,91,0.23,,---,0.29,19.00,VWS V14.00,2013-06-24 08:00:00,
2013-06-24 04:03:00,65.4,62.7,29.92,ENE,64,2.0,5.0,91,0.00,,---,0.00,0.00,VWS V14.00,2013-06-24 08:03:00,
2013-06-24 04:08:00,65.2,62.5,29.92,ENE,62,1.0,5.0,91,0.00,,---,0.00,0.00,VWS V14.00,2013-06-24 08:08:00,
2013-06-24 04:14:00,65.2,62.5,29.92,NNE,31,1.0,5.0,91,0.00,,---,0.00,0.00,VWS V14.00,2013-06-24 08:14:00,
2013-06-24 04:19:00,65.1,62.4,29.92,NNE,15,3.0,4.0,91,0.00,,---,0.00,0.00,VWS V14.00,2013-06-24 08:19:00,
2013-06-24 04:24:00,65.0,62.3,29.92,NNE,15,0.0,4.0,91,0.00,,---,0.00,0.00,VWS V14.00,2013-06-24 08:24:00,
2013-06-24 04:29:00,64.9,62.2,29.92,NNE,27,0.0,4.0,91,0.00,,---,0.00,0.00,VWS V14.00,2013-06-24 08:29:00,
2013-06-24 04:30:00,66.2,63.5,30.03,ENE,59,5.0,8.0,91,0.23,,---,0.33,56.00,VWS V14.00,2013-06-24 08:30:00,
2013-06-24 04:34:00,65.1,62.7,29.92,NE,37,2.0,5.0,92,0.00,,---,0.00,0.00,VWS V14.00,2013-06-24 08:34:00,
2013-06-24 04:39:00,65.2,62.8,29.92,NNE,30,0.0,5.0,92,0.00,,---,0.00,0.00,VWS V14.00,2013-06-24 08:39:00,
2013-06-24 04:44:00,65.4,62.7,29.92,NNE,29,3.0,5.0,91,0.00,,---,0.00,0.00,VWS V14.00,2013-06-24 08:44:00,
2013-06-24 04:50:00,65.3,62.6,29.92,NE,40,3.0,4.0,91,0.00,,---,0.00,0.00,VWS V14.00,2013-06-24 08:50:00,
2013-06-24 04:55:00,65.5,62.8,29.92,NNE,31,1.0,4.0,91,0.00,,---,0.00,0.00,VWS V14.00,2013-06-24 08:55:00,
2013-06-24 05:00:00,65.4,62.7,29.92,NE,44,4.0,5.0,91,0.00,,---,0.00,0.00,VWS V14.00,2013-06-24 09:00:00,
2013-06-24 05:05:00,65.4,62.7,29.92,ENE,57,3.0,5.0,91,0.00,,---,0.00,0.00,VWS V14.00,2013-06-24 09:05:00,
2013-06-24 05:10:00,65.4,62.7,29.92,NE,50,2.0,5.0,91,0.00,,---,0.00,0.00,VWS V14.00,2013-06-24 09:10:00,
2013-06-24 05:15:00,65.5,62.8,29.92,NNW,330,0.0,0.0,91,0.00,,---,0.00,5.00,VWS V14.00,2013-06-24 09:15:00,
2013-06-24 05:20:00,65.4,62.7,29.92,NNE,14,0.0,4.0,91,0.00,,---,0.00,5.00,VWS V14.00,2013-06-24 09:20:00,
2013-06-24 05:25:00,65.5,62.8,29.93,NNE,23,2.0,4.0,91,0.00,,---,0.00,9.00,VWS V14.00,2013-06-24 09:25:00,
2013-06-24 05:30:00,65.4,62.7,29.93,NNE,23,0.0,4.0,91,0.00,,---,0.00,11.00,VWS V14.00,2013-06-24 09:30:00,
2013-06-24 05:36:00,65.4,62.7,29.92,NNE,23,0.0,4.0,91,0.00,,---,0.00,11.00,VWS V14.00,2013-06-24 09:36:00,
2013-06-24 05:41:00,65.5,62.8,29.92,NNE,13,2.0,4.0,91,0.00,,---,0.00,12.00,VWS V14.00,2013-06-24 09:41:00,
2013-06-24 05:46:00,65.4,62.7,29.93,NNE,22,2.0,3.0,91,0.00,,---,0.00,12.00,VWS V14.00,2013-06-24 09:46:00,
2013-06-24 05:51:00,65.4,62.7,29.93,NNE,22,0.0,3.0,91,0.00,,---,0.00,18.00,VWS V14.00,2013-06-24 09:51:00,
2013-06-24 05:56:00,65.4,62.7,29.93,NNE,30,2.0,4.0,91,0.00,,---,0.00,26.00,VWS V14.00,2013-06-24 09:56:00,
2013-06-24 06:00:00,68.4,65.0,30.05,SE,146,4.0,4.0,89,0.00,,---,0.33,236.00,VWS V14.00,2013-06-24 10:00:00,
2013-06-24 06:01:00,65.4,62.7,29.93,ENE,72,0.0,4.0,91,0.00,,---,0.00,47.00,VWS V14.00,2013-06-24 10:01:00,
2013-06-24 06:06:00,65.6,63.2,29.93,ENE,72,1.0,4.0,92,0.00,,---,0.00,49.00,VWS V14.00,2013-06-24 10:06:00,
2013-06-24 06:11:00,65.8,63.4,29.93,ENE,58,0.0,4.0,92,0.00,,---,0.00,51.00,VWS V14.00,2013-06-24 10:11:00,
2013-06-24 06:16:00,66.0,63.6,29.93,SSE,153,7.0,7.0,92,0.00,,---,0.00,53.00,VWS V14.00,2013-06-24 10:16:00,
2013-06-24 06:21:00,66.5,64.1,29.93,NNW,346,1.0,7.0,92,0.00,,---,0.00,54.00,VWS V14.00,2013-06-24 10:21:00,
2013-06-24 06:26:00,66.5,64.1,29.94,North,355,2.0,7.0,92,0.00,,---,0.00,91.00,VWS V14.00,2013-06-24 10:26:00,
2013-06-24 06:30:00,69.3,64.9,30.05,South,176,1.0,7.0,86,0.00,,---,0.33,74.00,VWS V14.00,2013-06-24 10:30:00,
2013-06-24 06:31:00,66.7,64.3,29.93,North,355,0.0,7.0,92,0.00,,---,0.00,102.00,VWS V14.00,2013-06-24 10:31:00,
2013-06-24 06:36:00,67.0,64.6,29.93,North,5,2.0,7.0,92,0.00,,---,0.00,125.00,VWS V14.00,2013-06-24 10:36:00,
2013-06-24 06:41:00,67.4,65.0,29.93,South,190,2.0,7.0,92,0.00,,---,0.00,144.00,VWS V14.00,2013-06-24 10:41:00,
2013-06-24 06:47:00,67.8,65.1,29.93,NNE,15,2.0,3.0,91,0.00,,---,0.00,158.00,VWS V14.00,2013-06-24 10:47:00,
2013-06-24 06:52:00,68.3,65.6,29.93,NNE,13,0.0,4.0,91,0.00,,---,0.00,162.00,VWS V14.00,2013-06-24 10:52:00,
2013-06-24 06:57:00,68.8,65.8,29.93,NE,43,2.0,4.0,90,0.00,,---,0.00,156.00,VWS V14.00,2013-06-24 10:57:00,
2013-06-24 07:00:00,69.4,65.0,30.04,SE,125,4.0,8.0,86,0.00,,---,0.33,151.00,VWS V14.00,2013-06-24 11:00:00,
2013-06-24 07:02:00,69.1,66.1,29.93,NNE,13,0.0,4.0,90,0.00,,---,0.00,67.00,VWS V14.00,2013-06-24 11:02:00,
2013-06-24 07:07:00,69.2,65.8,29.93,NNE,13,3.0,4.0,89,0.00,,---,0.00,79.00,VWS V14.00,2013-06-24 11:07:00,
2013-06-24 07:12:00,69.3,65.9,29.93,NNE,17,0.0,4.0,89,0.00,,---,0.00,121.00,VWS V14.00,2013-06-24 11:12:00,
2013-06-24 07:17:00,69.3,65.9,29.93,NNE,17,1.0,1.0,89,0.00,,---,0.00,225.00,VWS V14.00,2013-06-24 11:17:00,
2013-06-24 07:22:00,69.5,66.1,29.93,North,10,2.0,4.0,89,0.00,,---,0.00,239.00,VWS V14.00,2013-06-24 11:22:00,
2013-06-24 07:28:00,69.8,66.4,29.93,North,9,0.0,4.0,89,0.00,,---,0.00,250.00,VWS V14.00,2013-06-24 11:28:00,
2013-06-24 07:30:00,71.2,66.1,30.03,SW,215,0.0,9.0,84,0.00,,---,0.33,200.00,VWS V14.00,2013-06-24 11:30:00,
2013-06-24 07:33:00,70.1,66.4,29.94,WNW,298,0.0,4.0,88,0.00,,---,0.00,265.00,VWS V14.00,2013-06-24 11:33:00,
2013-06-24 07:38:00,70.4,66.7,29.93,NNW,337,3.0,4.0,88,0.00,,---,0.00,278.00,VWS V14.00,2013-06-24 11:38:00,
2013-06-24 07:43:00,70.9,66.8,29.93,WNW,300,3.0,4.0,87,0.00,,---,0.00,288.00,VWS V14.00,2013-06-24 11:43:00,
2013-06-24 07:48:00,71.2,66.8,29.93,WSW,250,3.0,6.0,86,0.00,,---,0.00,302.00,VWS V14.00,2013-06-24 11:48:00,
2013-06-24 07:53:00,71.7,67.3,29.93,SW,231,1.0,6.0,86,0.00,,---,0.00,318.00,VWS V14.00,2013-06-24 11:53:00,
2013-06-24 07:58:00,72.1,67.0,29.94,South,185,4.0,7.0,84,0.00,,---,0.00,329.00,VWS V14.00,2013-06-24 11:58:00,
2013-06-24 08:00:00,72.1,66.3,30.02,South,184,3.0,12.0,82,0.00,,---,0.33,715.00,VWS V14.00,2013-06-24 12:00:00,
2013-06-24 08:03:00,72.4,67.3,29.94,WSW,250,0.0,7.0,84,0.00,,---,0.00,348.00,VWS V14.00,2013-06-24 12:03:00,
2013-06-24 08:08:00,73.0,67.5,29.94,West,276,3.0,7.0,83,0.00,,---,0.00,367.00,VWS V14.00,2013-06-24 12:08:00,
2013-06-24 08:14:00,73.3,67.5,29.93,NW,315,4.0,7.0,82,0.00,,---,0.00,371.00,VWS V14.00,2013-06-24 12:14:00,
2013-06-24 08:19:00,73.5,67.7,29.93,NW,313,0.0,3.0,82,0.00,,---,0.00,394.00,VWS V14.00,2013-06-24 12:19:00,
2013-06-24 08:24:00,74.0,67.4,29.93,WNW,302,2.0,3.0,80,0.00,,---,0.00,411.00,VWS V14.00,2013-06-24 12:24:00,
2013-06-24 08:30:00,74.4,68.2,29.93,NNE,32,0.0,5.0,81,0.00,,---,0.00,418.00,VWS V14.00,2013-06-24 12:30:00,
2013-06-24 08:35:00,74.7,67.4,29.93,WSW,257,2.0,6.0,78,0.00,,---,0.00,436.00,VWS V14.00,2013-06-24 12:35:00,
2013-06-24 08:40:00,74.9,67.6,29.93,WSW,251,1.0,6.0,78,0.00,,---,0.00,443.00,VWS V14.00,2013-06-24 12:40:00,
2013-06-24 08:45:00,75.2,67.9,29.93,West,269,3.0,3.0,78,0.00,,---,0.00,399.00,VWS V14.00,2013-06-24 12:45:00,
2013-06-24 08:50:00,75.3,68.0,29.93,SW,234,0.0,3.0,78,0.00,,---,0.00,144.00,VWS V14.00,2013-06-24 12:50:00,
2013-06-24 08:56:00,75.1,67.4,29.93,West,271,0.0,4.0,77,0.00,,---,0.00,174.00,VWS V14.00,2013-06-24 12:56:00,
2013-06-24 09:00:00,74.3,67.4,30.02,SSE,155,4.0,12.0,79,0.00,,---,0.33,821.00,VWS V14.00,2013-06-24 13:00:00,
2013-06-24 09:01:00,75.0,67.7,29.93,West,271,0.0,4.0,78,0.00,,---,0.00,155.00,VWS V14.00,2013-06-24 13:01:00,
2013-06-24 09:06:00,74.9,68.3,29.93,West,272,0.0,4.0,80,0.00,,---,0.00,304.00,VWS V14.00,2013-06-24 13:06:00,
2013-06-24 09:11:00,75.1,67.4,29.93,West,272,1.0,4.0,77,0.00,,---,0.00,441.00,VWS V14.00,2013-06-24 13:11:00,
2013-06-24 09:16:00,75.6,68.3,29.93,WSW,252,3.0,3.0,78,0.00,,---,0.00,547.00,VWS V14.00,2013-06-24 13:16:00,
2013-06-24 09:21:00,76.3,68.9,29.93,WSW,250,1.0,5.0,78,0.00,,---,0.00,554.00,VWS V14.00,2013-06-24 13:21:00,
2013-06-24 09:26:00,77.0,68.5,29.93,WSW,257,0.0,5.0,75,0.00,,---,0.00,566.00,VWS V14.00,2013-06-24 13:26:00,
2013-06-24 09:30:00,76.1,68.4,30.01,South,180,3.0,8.0,77,0.00,,---,0.33,835.00,VWS V14.00,2013-06-24 13:30:00,
2013-06-24 09:31:00,77.0,68.1,29.93,WSW,249,0.0,5.0,74,0.00,,---,0.00,599.00,VWS V14.00,2013-06-24 13:31:00,
2013-06-24 09:36:00,77.2,69.1,29.92,South,186,0.0,5.0,76,0.00,,---,0.00,211.00,VWS V14.00,2013-06-24 13:36:00,
2013-06-24 09:41:00,77.2,68.3,29.93,WSW,257,1.0,5.0,74,0.00,,---,0.00,223.00,VWS V14.00,2013-06-24 13:41:00,
2013-06-24 09:46:00,77.0,68.5,29.93,South,186,1.0,1.0,75,0.00,,---,0.00,295.00,VWS V14.00,2013-06-24 13:46:00,
2013-06-24 09:51:00,76.4,68.3,29.93,SSW,211,4.0,4.0,76,0.00,,---,0.00,302.00,VWS V14.00,2013-06-24 13:51:00,
2013-06-24 09:57:00,76.6,68.1,29.93,WSW,252,0.0,5.0,75,0.00,,---,0.00,473.00,VWS V14.00,2013-06-24 13:57:00,
2013-06-24 10:00:00,76.6,68.5,30.00,SSW,207,4.0,8.0,76,0.00,,---,0.33,719.00,VWS V14.00,2013-06-24 14:00:00,
2013-06-24 10:02:00,77.2,67.9,29.93,West,265,3.0,8.0,73,0.00,,---,0.00,654.00,VWS V14.00,2013-06-24 14:02:00,
2013-06-24 10:07:00,77.5,68.6,29.92,WSW,244,3.0,8.0,74,0.00,,---,0.00,656.00,VWS V14.00,2013-06-24 14:07:00,
2013-06-24 10:12:00,77.8,68.5,29.92,South,178,5.0,8.0,73,0.00,,---,0.00,666.00,VWS V14.00,2013-06-24 14:12:00,
2013-06-24 10:18:00,77.9,67.8,29.92,SSE,162,2.0,7.0,71,0.00,,---,0.00,679.00,VWS V14.00,2013-06-24 14:18:00,
2013-06-24 10:23:00,78.6,67.6,29.92,WSW,247,2.0,7.0,69,0.00,,---,0.00,691.00,VWS V14.00,2013-06-24 14:23:00,
2013-06-24 10:28:00,78.1,68.3,29.92,SSW,206,0.0,7.0,72,0.00,,---,0.00,696.00,VWS V14.00,2013-06-24 14:28:00,
2013-06-24 10:30:00,77.0,68.9,30.00,WSW,256,3.0,9.0,76,0.00,,---,0.33,536.00,VWS V14.00,2013-06-24 14:30:00,
2013-06-24 10:33:00,78.6,69.2,29.92,SW,219,0.0,7.0,73,0.00,,---,0.00,700.00,VWS V14.00,2013-06-24 14:33:00,
2013-06-24 10:38:00,78.8,68.6,29.92,West,265,2.0,7.0,71,0.00,,---,0.00,715.00,VWS V14.00,2013-06-24 14:38:00,
2013-06-24 10:43:00,79.1,68.1,29.92,WSW,257,2.0,7.0,69,0.00,,---,0.00,726.00,VWS V14.00,2013-06-24 14:43:00,
2013-06-24 10:48:00,79.7,69.5,29.92,WSW,247,0.0,3.0,71,0.00,,---,0.00,737.00,VWS V14.00,2013-06-24 14:48:00,
2013-06-24 10:53:00,80.0,68.5,29.92,SSW,195,1.0,4.0,68,0.00,,---,0.00,749.00,VWS V14.00,2013-06-24 14:53:00,
2013-06-24 10:58:00,80.1,69.0,29.92,SW,217,4.0,6.0,69,0.00,,---,0.00,754.00,VWS V14.00,2013-06-24 14:58:00,
2013-06-24 11:00:00,77.8,69.2,29.99,WSW,238,1.0,9.0,75,0.00,,---,0.33,860.00,VWS V14.00,2013-06-24 15:00:00,
2013-06-24 11:04:00,79.6,67.7,29.92,SSE,161,4.0,8.0,67,0.00,,---,0.00,768.00,VWS V14.00,2013-06-24 15:04:00,
2013-06-24 11:09:00,79.6,70.2,29.92,West,263,1.0,8.0,73,0.00,,---,0.00,770.00,VWS V14.00,2013-06-24 15:09:00,
2013-06-24 11:14:00,79.9,69.2,29.92,South,180,2.0,8.0,70,0.00,,---,0.00,793.00,VWS V14.00,2013-06-24 15:14:00,
2013-06-24 11:19:00,80.0,68.5,29.92,SSW,199,5.0,9.0,68,0.00,,---,0.00,796.00,VWS V14.00,2013-06-24 15:19:00,
2013-06-24 11:24:00,80.0,68.9,29.92,West,263,3.0,9.0,69,0.00,,---,0.00,800.00,VWS V14.00,2013-06-24 15:24:00,
2013-06-24 11:29:00,80.2,69.9,29.92,South,173,0.0,9.0,71,0.00,,---,0.00,810.00,VWS V14.00,2013-06-24 15:29:00,
2013-06-24 11:30:00,80.0,72.2,29.98,WSW,245,1.0,10.0,77,0.00,,---,0.33,860.00,VWS V14.00,2013-06-24 15:30:00,
2013-06-24 11:34:00,80.0,68.9,29.92,South,175,5.0,9.0,69,0.00,,---,0.00,819.00,VWS V14.00,2013-06-24 15:34:00,
2013-06-24 11:39:00,79.8,69.2,29.91,South,178,0.0,9.0,70,0.00,,---,0.00,821.00,VWS V14.00,2013-06-24 15:39:00,
2013-06-24 11:44:00,80.4,71.4,29.91,SW,225,0.0,9.0,74,0.00,,---,0.00,824.00,VWS V14.00,2013-06-24 15:44:00,
2013-06-24 11:50:00,80.9,70.2,29.91,SW,229,0.0,4.0,70,0.00,,---,0.00,837.00,VWS V14.00,2013-06-24 15:50:00,
2013-06-24 11:55:00,81.2,70.1,29.91,SW,226,1.0,5.0,69,0.00,,---,0.00,837.00,VWS V14.00,2013-06-24 15:55:00,
2013-06-24 12:00:00,81.1,68.7,29.91,SSW,213,4.0,7.0,66,0.00,,---,0.00,854.00,VWS V14.00,2013-06-24 16:00:00,
2013-06-24 12:05:00,81.7,70.1,29.91,SW,221,2.0,7.0,68,0.00,,---,0.00,858.00,VWS V14.00,2013-06-24 16:05:00,
2013-06-24 12:10:00,81.9,70.3,29.91,SSE,159,3.0,8.0,68,0.00,,---,0.00,863.00,VWS V14.00,2013-06-24 16:10:00,
2013-06-24 12:15:00,81.5,70.4,29.91,South,170,2.0,2.0,69,0.00,,---,0.00,874.00,VWS V14.00,2013-06-24 16:15:00,
2013-06-24 12:20:00,81.9,70.7,29.91,WSW,248,5.0,5.0,69,0.00,,---,0.00,889.00,VWS V14.00,2013-06-24 16:20:00,
2013-06-24 12:25:00,81.7,68.8,29.91,South,174,3.0,8.0,65,0.00,,---,0.00,893.00,VWS V14.00,2013-06-24 16:25:00,
2013-06-24 12:30:00,82.1,71.3,29.91,West,279,0.0,10.0,70,0.00,,---,0.00,921.00,VWS V14.00,2013-06-24 16:30:00,
2013-06-24 12:35:00,82.3,69.4,29.91,WSW,245,1.0,10.0,65,0.00,,---,0.00,918.00,VWS V14.00,2013-06-24 16:35:00,
2013-06-24 12:40:00,82.9,70.4,29.91,West,267,4.0,10.0,66,0.00,,---,0.00,907.00,VWS V14.00,2013-06-24 16:40:00,
2013-06-24 12:45:00,82.8,70.3,29.91,SSW,193,5.0,6.0,66,0.00,,---,0.00,925.00,VWS V14.00,2013-06-24 16:45:00,
2013-06-24 12:50:00,83.0,71.8,29.91,WSW,246,0.0,6.0,69,0.00,,---,0.00,930.00,VWS V14.00,2013-06-24 16:50:00,
2013-06-24 12:55:00,83.7,71.1,29.91,WSW,248,1.0,7.0,66,0.00,,---,0.00,997.00,VWS V14.00,2013-06-24 16:55:00,
2013-06-24 13:00:00,83.2,71.1,29.91,South,190,4.0,7.0,67,0.00,,---,0.00,981.00,VWS V14.00,2013-06-24 17:00:00,
2013-06-24 13:05:00,82.3,72.0,29.91,South,177,3.0,9.0,71,0.00,,---,0.00,946.00,VWS V14.00,2013-06-24 17:05:00,
2013-06-24 13:10:00,82.5,71.3,29.91,South,191,3.0,9.0,69,0.00,,---,0.00,923.00,VWS V14.00,2013-06-24 17:10:00,
2013-06-24 13:16:00,83.1,71.4,29.91,SW,218,5.0,6.0,68,0.00,,---,0.00,956.00,VWS V14.00,2013-06-24 17:16:00,
2013-06-24 13:21:00,82.8,71.6,29.90,South,178,2.0,7.0,69,0.00,,---,0.00,902.00,VWS V14.00,2013-06-24 17:21:00,
2013-06-24 13:26:00,83.0,71.8,29.90,SW,217,8.0,8.0,69,0.00,,---,0.00,415.00,VWS V14.00,2013-06-24 17:26:00,
2013-06-24 13:30:00,82.9,72.5,29.93,SW,223,5.0,7.0,71,0.00,,---,0.33,782.00,VWS V14.00,2013-06-24 17:30:00,
2013-06-24 13:31:00,82.9,72.1,29.90,South,181,4.0,8.0,70,0.00,,---,0.00,343.00,VWS V14.00,2013-06-24 17:31:00,
2013-06-24 13:37:00,82.8,72.4,29.89,SW,232,3.0,8.0,71,0.00,,---,0.00,294.00,VWS V14.00,2013-06-24 17:37:00,
2013-06-24 13:42:00,83.8,72.6,29.89,WSW,258,3.0,8.0,69,0.00,,---,0.00,967.00,VWS V14.00,2013-06-24 17:42:00,
2013-06-24 13:47:00,83.4,71.7,29.89,SW,221,1.0,5.0,68,0.00,,---,0.00,185.00,VWS V14.00,2013-06-24 17:47:00,
2013-06-24 13:52:00,83.0,71.4,29.89,SSW,195,4.0,5.0,68,0.00,,---,0.00,251.00,VWS V14.00,2013-06-24 17:52:00,
2013-06-24 13:57:00,82.7,71.9,29.88,West,263,5.0,5.0,70,0.00,,---,0.00,116.00,VWS V14.00,2013-06-24 17:57:00,
2013-06-24 14:00:00,81.0,70.7,29.92,SW,233,2.0,10.0,71,0.00,,---,0.33,659.00,VWS V14.00,2013-06-24 18:00:00,
2013-06-24 14:02:00,82.4,71.2,29.88,South,178,2.0,7.0,69,0.00,,---,0.00,248.00,VWS V14.00,2013-06-24 18:02:00,
2013-06-24 14:07:00,81.9,71.2,29.88,SW,236,5.0,7.0,70,0.00,,---,0.00,218.00,VWS V14.00,2013-06-24 18:07:00,
2013-06-24 14:12:00,81.7,71.4,29.88,WSW,245,9.0,10.0,71,0.00,,---,0.00,227.00,VWS V14.00,2013-06-24 18:12:00,
2013-06-24 14:17:00,81.6,71.3,29.89,NNW,336,3.0,9.0,71,0.00,,---,0.00,137.00,VWS V14.00,2013-06-24 18:17:00,
2013-06-24 14:22:00,80.9,71.8,29.89,NW,313,2.0,11.0,74,0.00,,---,0.00,74.00,VWS V14.00,2013-06-24 18:22:00,
2013-06-24 14:28:00,80.0,72.2,29.88,NNW,347,0.0,11.0,77,0.00,,---,0.00,58.00,VWS V14.00,2013-06-24 18:28:00,
2013-06-24 14:30:00,80.0,71.0,29.91,SSW,206,0.0,7.0,74,0.00,,---,0.33,139.00,VWS V14.00,2013-06-24 18:30:00,
2013-06-24 14:33:00,79.2,72.1,29.88,ENE,65,3.0,11.0,79,0.00,,---,0.00,35.00,VWS V14.00,2013-06-24 18:33:00,
2013-06-24 14:38:00,77.9,70.9,29.87,East,85,3.0,11.0,79,0.01,,---,0.01,7.00,VWS V14.00,2013-06-24 18:38:00,
2013-06-24 14:43:00,76.2,69.9,29.88,NNE,27,2.0,11.0,81,0.02,,---,0.02,5.00,VWS V14.00,2013-06-24 18:43:00,
2013-06-24 14:48:00,75.2,69.3,29.89,ESE,121,2.0,4.0,82,0.03,,---,0.03,0.00,VWS V14.00,2013-06-24 18:48:00,
2013-06-24 14:53:00,74.7,68.8,29.90,NE,51,0.0,4.0,82,0.03,,---,0.03,7.00,VWS V14.00,2013-06-24 18:53:00,
2013-06-24 14:58:00,74.4,68.9,29.89,WNW,290,5.0,5.0,83,0.04,,---,0.04,11.00,VWS V14.00,2013-06-24 18:58:00,
2013-06-24 15:00:00,73.8,68.7,29.91,East,80,8.0,11.0,84,0.24,,---,0.57,373.00,VWS V14.00,2013-06-24 19:00:00,
2013-06-24 15:03:00,74.4,69.6,29.89,SW,227,2.0,5.0,85,0.04,,---,0.04,21.00,VWS V14.00,2013-06-24 19:03:00,
2013-06-24 15:08:00,74.4,69.6,29.90,SE,138,3.0,5.0,85,0.04,,---,0.04,21.00,VWS V14.00,2013-06-24 19:08:00,
2013-06-24 15:13:00,74.1,69.3,29.90,ENE,78,2.0,5.0,85,0.04,,---,0.04,19.00,VWS V14.00,2013-06-24 19:13:00,
2013-06-24 15:18:00,73.9,69.1,29.90,ENE,78,2.0,3.0,85,0.04,,---,0.04,21.00,VWS V14.00,2013-06-24 19:18:00,
2013-06-24 15:23:00,73.5,69.1,29.91,ENE,73,2.0,3.0,86,0.04,,---,0.04,25.00,VWS V14.00,2013-06-24 19:23:00,
2013-06-24 15:29:00,73.3,69.2,29.90,ENE,73,0.0,3.0,87,0.04,,---,0.04,30.00,VWS V14.00,2013-06-24 19:29:00,
2013-06-24 15:30:00,71.2,68.1,29.93,ESE,116,3.0,9.0,90,0.25,,---,0.58,90.00,VWS V14.00,2013-06-24 19:30:00,
2013-06-24 15:34:00,73.1,69.0,29.90,ENE,69,0.0,3.0,87,0.04,,---,0.04,33.00,VWS V14.00,2013-06-24 19:34:00,
2013-06-24 15:39:00,72.6,68.2,29.90,East,87,1.0,3.0,86,0.04,,---,0.04,44.00,VWS V14.00,2013-06-24 19:39:00,
2013-06-24 15:44:00,72.2,67.8,29.89,East,100,1.0,6.0,86,0.04,,---,0.04,53.00,VWS V14.00,2013-06-24 19:44:00,
2013-06-24 15:49:00,72.0,67.2,29.89,East,100,1.0,1.0,85,0.02,,---,0.05,62.00,VWS V14.00,2013-06-24 19:49:00,
2013-06-24 15:54:00,72.3,67.9,29.89,East,98,6.0,6.0,86,0.02,,---,0.05,72.00,VWS V14.00,2013-06-24 19:54:00,
2013-06-24 15:59:00,72.1,67.7,29.88,East,93,2.0,6.0,86,0.02,,---,0.05,88.00,VWS V14.00,2013-06-24 19:59:00,
2013-06-24 16:00:00,69.4,65.4,29.95,SSW,193,9.0,18.0,87,0.25,,---,0.58,330.00,VWS V14.00,2013-06-24 20:00:00,
2013-06-24 16:04:00,71.8,67.4,29.87,ESE,102,0.0,6.0,86,0.03,,---,0.06,114.00,VWS V14.00,2013-06-24 20:04:00,
2013-06-24 16:09:00,71.7,67.3,29.87,East,100,5.0,7.0,86,0.03,,---,0.06,139.00,VWS V14.00,2013-06-24 20:09:00,
2013-06-24 16:14:00,71.7,67.3,29.86,ESE,110,1.0,7.0,86,0.03,,---,0.06,156.00,VWS V14.00,2013-06-24 20:14:00,
2013-06-24 16:19:00,71.9,67.8,29.86,East,99,2.0,5.0,87,0.02,,---,0.06,169.00,VWS V14.00,2013-06-24 20:19:00,
2013-06-24 16:24:00,71.9,67.8,29.85,East,94,0.0,5.0,87,0.02,,---,0.06,193.00,VWS V14.00,2013-06-24 20:24:00,
2013-06-24 16:30:00,72.0,68.3,29.85,East,94,0.0,5.0,88,0.02,,---,0.06,211.00,VWS V14.00,2013-06-24 20:30:00,
2013-06-24 16:35:00,72.0,68.3,29.85,East,92,0.0,5.0,88,0.02,,---,0.06,204.00,VWS V14.00,2013-06-24 20:35:00,
2013-06-24 16:40:00,72.3,68.6,29.86,East,92,0.0,5.0,88,0.02,,---,0.06,202.00,VWS V14.00,2013-06-24 20:40:00,
2013-06-24 16:45:00,72.4,68.7,29.86,East,92,1.0,1.0,88,0.02,,---,0.06,332.00,VWS V14.00,2013-06-24 20:45:00,
2013-06-24 16:50:00,73.1,69.7,29.86,East,92,1.0,1.0,89,0.02,,---,0.06,490.00,VWS V14.00,2013-06-24 20:50:00,
2013-06-24 16:55:00,73.5,69.7,29.86,East,92,0.0,1.0,88,0.02,,---,0.06,457.00,VWS V14.00,2013-06-24 20:55:00,
2013-06-24 17:00:00,73.9,69.4,29.86,East,92,1.0,2.0,86,0.02,,---,0.06,432.00,VWS V14.00,2013-06-24 21:00:00,
2013-06-24 17:05:00,74.2,69.1,29.87,East,92,0.0,2.0,84,0.02,,---,0.06,304.00,VWS V14.00,2013-06-24 21:05:00,
2013-06-24 17:10:00,74.8,69.7,29.87,East,92,1.0,2.0,84,0.02,,---,0.06,473.00,VWS V14.00,2013-06-24 21:10:00,
2013-06-24 17:16:00,75.3,69.8,29.87,East,92,0.0,0.0,83,0.00,,---,0.06,496.00,VWS V14.00,2013-06-24 21:16:00,
2013-06-24 17:21:00,75.8,69.9,29.87,East,92,1.0,3.0,82,0.00,,---,0.06,446.00,VWS V14.00,2013-06-24 21:21:00,
2013-06-24 17:26:00,76.1,69.8,29.87,South,184,0.0,4.0,81,0.00,,---,0.06,584.00,VWS V14.00,2013-06-24 21:26:00,
2013-06-24 17:30:00,72.9,66.7,29.93,South,180,6.0,11.0,81,0.00,,---,0.58,46.00,VWS V14.00,2013-06-24 21:30:00,
2013-06-24 17:31:00,76.5,70.2,29.87,South,180,0.0,4.0,81,0.00,,---,0.06,459.00,VWS V14.00,2013-06-24 21:31:00,
2013-06-24 17:37:00,76.9,70.6,29.86,East,89,0.0,5.0,81,0.00,,---,0.06,404.00,VWS V14.00,2013-06-24 21:37:00,
2013-06-24 17:42:00,77.1,70.5,29.86,East,89,0.0,5.0,80,0.00,,---,0.06,366.00,VWS V14.00,2013-06-24 21:42:00,
2013-06-24 17:47:00,77.4,71.1,29.86,East,89,1.0,1.0,81,0.00,,---,0.06,388.00,VWS V14.00,2013-06-24 21:47:00,
2013-06-24 17:52:00,77.6,70.6,29.85,East,87,1.0,2.0,79,0.00,,---,0.06,390.00,VWS V14.00,2013-06-24 21:52:00,
2013-06-24 17:57:00,77.7,70.7,29.85,East,87,0.0,2.0,79,0.00,,---,0.06,387.00,VWS V14.00,2013-06-24 21:57:00,
2013-06-24 18:00:00,72.6,67.2,29.93,South,173,1.0,14.0,83,0.00,,---,0.58,16.00,VWS V14.00,2013-06-24 22:00:00,
2013-06-24 18:02:00,78.0,71.3,29.85,SSE,153,0.0,2.0,80,0.00,,---,0.06,339.00,VWS V14.00,2013-06-24 22:02:00,
2013-06-24 18:07:00,78.2,71.2,29.85,SSE,153,0.0,2.0,79,0.00,,---,0.06,338.00,VWS V14.00,2013-06-24 22:07:00,
2013-06-24 18:12:00,78.3,70.9,29.85,SSE,165,1.0,3.0,78,0.00,,---,0.06,316.00,VWS V14.00,2013-06-24 22:12:00,
2013-06-24 18:17:00,78.1,70.3,29.85,South,183,1.0,4.0,77,0.00,,---,0.06,288.00,VWS V14.00,2013-06-24 22:17:00,
2013-06-24 18:22:00,78.0,70.2,29.85,South,183,1.0,4.0,77,0.00,,---,0.06,278.00,VWS V14.00,2013-06-24 22:22:00,
2013-06-24 18:27:00,77.9,70.1,29.85,South,173,0.0,6.0,77,0.00,,---,0.06,271.00,VWS V14.00,2013-06-24 22:27:00,
2013-06-24 18:30:00,70.9,66.5,29.93,ENE,78,1.0,5.0,86,0.00,,---,0.58,0.00,VWS V14.00,2013-06-24 22:30:00,
2013-06-24 18:32:00,77.8,69.6,29.85,SSE,165,1.0,6.0,76,0.00,,---,0.06,262.00,VWS V14.00,2013-06-24 22:32:00,
2013-06-24 18:37:00,77.5,70.1,29.85,SSE,165,2.0,6.0,78,0.00,,---,0.06,227.00,VWS V14.00,2013-06-24 22:37:00,
2013-06-24 18:42:00,77.1,69.0,29.85,SSE,168,2.0,6.0,76,0.00,,---,0.06,223.00,VWS V14.00,2013-06-24 22:42:00,
2013-06-24 18:47:00,76.9,69.5,29.85,SSE,167,2.0,4.0,78,0.00,,---,0.06,213.00,VWS V14.00,2013-06-24 22:47:00,
2013-06-24 18:52:00,76.8,69.8,29.85,West,263,0.0,7.0,79,0.00,,---,0.06,134.00,VWS V14.00,2013-06-24 22:52:00,
2013-06-24 18:58:00,76.4,69.0,29.85,West,262,1.0,7.0,78,0.00,,---,0.06,97.00,VWS V14.00,2013-06-24 22:58:00,
2013-06-24 19:00:00,70.4,66.0,29.94,North,5,2.0,9.0,86,0.00,,---,0.58,0.00,VWS V14.00,2013-06-24 23:00:00,
2013-06-24 19:03:00,76.1,69.1,29.85,SSW,205,0.0,7.0,79,0.00,,---,0.06,104.00,VWS V14.00,2013-06-24 23:03:00,
2013-06-24 19:08:00,76.1,68.8,29.85,SSW,205,0.0,7.0,78,0.00,,---,0.06,91.00,VWS V14.00,2013-06-24 23:08:00,
2013-06-24 19:13:00,76.0,69.0,29.84,South,178,0.0,7.0,79,0.00,,---,0.06,76.00,VWS V14.00,2013-06-24 23:13:00,
2013-06-24 19:18:00,75.8,68.8,29.84,South,176,1.0,1.0,79,0.00,,---,0.06,83.00,VWS V14.00,2013-06-24 23:18:00,
2013-06-24 19:23:00,75.6,68.6,29.84,South,176,0.0,1.0,79,0.00,,---,0.06,67.00,VWS V14.00,2013-06-24 23:23:00,
2013-06-24 19:28:00,75.4,68.4,29.85,SSW,207,0.0,5.0,79,0.01,,---,0.07,65.00,VWS V14.00,2013-06-24 23:28:00,
2013-06-24 19:30:00,69.2,65.5,29.95,NE,39,0.0,4.0,88,0.00,,---,0.58,0.00,VWS V14.00,2013-06-24 23:30:00,
2013-06-24 19:34:00,75.3,68.3,29.85,SW,225,0.0,5.0,79,0.01,,---,0.07,51.00,VWS V14.00,2013-06-24 23:34:00,
2013-06-24 19:39:00,75.1,68.2,29.85,South,188,0.0,5.0,79,0.01,,---,0.07,33.00,VWS V14.00,2013-06-24 23:39:00,
2013-06-24 19:44:00,75.1,68.5,29.86,SSE,164,2.0,5.0,80,0.01,,---,0.07,21.00,VWS V14.00,2013-06-24 23:44:00,
2013-06-24 19:49:00,74.7,67.4,29.86,South,182,4.0,4.0,78,0.01,,---,0.07,16.00,VWS V14.00,2013-06-24 23:49:00,
2013-06-24 19:54:00,74.5,67.2,29.86,SSW,203,3.0,6.0,78,0.01,,---,0.07,11.00,VWS V14.00,2013-06-24 23:54:00,
2013-06-24 19:59:00,74.4,67.1,29.86,SSE,167,1.0,6.0,78,0.01,,---,0.07,9.00,VWS V14.00,2013-06-24 23:59:00,
2013-06-24 20:00:00,68.3,65.3,29.96,NE,39,0.0,3.0,90,0.00,,---,0.58,0.00,VWS V14.00,2013-06-25 00:00:00,
2013-06-24 20:04:00,74.3,67.0,29.87,SSE,166,0.0,6.0,78,0.01,,---,0.07,7.00,VWS V14.00,2013-06-25 00:04:00,
2013-06-24 20:09:00,74.2,67.6,29.87,SSE,168,2.0,6.0,80,0.01,,---,0.07,5.00,VWS V14.00,2013-06-25 00:09:00,
2013-06-24 20:14:00,74.1,67.5,29.87,SSE,168,0.0,6.0,80,0.01,,---,0.07,5.00,VWS V14.00,2013-06-25 00:14:00,
2013-06-24 20:19:00,73.9,68.1,29.87,SSE,168,0.0,2.0,82,0.01,,---,0.07,5.00,VWS V14.00,2013-06-25 00:19:00,
2013-06-24 20:24:00,73.5,67.7,29.88,SSE,168,2.0,2.0,82,0.01,,---,0.07,0.00,VWS V14.00,2013-06-25 00:24:00,
2013-06-24 20:29:00,73.0,67.2,29.87,SSE,167,3.0,4.0,82,0.01,,---,0.07,0.00,VWS V14.00,2013-06-25 00:29:00,
2013-06-24 20:30:00,68.2,65.2,29.95,SSE,162,0.0,5.0,90,0.00,,---,0.58,0.00,VWS V14.00,2013-06-25 00:30:00,
2013-06-24 20:35:00,72.6,66.8,29.88,South,169,2.0,5.0,82,0.01,,---,0.07,0.00,VWS V14.00,2013-06-25 00:35:00,
2013-06-24 20:40:00,72.5,66.3,29.87,South,175,4.0,5.0,81,0.01,,---,0.07,0.00,VWS V14.00,2013-06-25 00:40:00,
2013-06-24 20:45:00,72.4,66.2,29.87,South,181,0.0,0.0,81,0.00,,---,0.07,0.00,VWS V14.00,2013-06-25 00:45:00,
2013-06-24 20:50:00,72.4,66.2,29.87,SSE,163,3.0,4.0,81,0.00,,---,0.07,0.00,VWS V14.00,2013-06-25 00:50:00,
2013-06-24 20:55:00,72.2,66.1,29.86,SW,221,1.0,5.0,81,0.00,,---,0.07,0.00,VWS V14.00,2013-06-25 00:55:00,
2013-06-24 21:00:00,72.0,66.2,29.86,SW,224,5.0,6.0,82,0.00,,---,0.07,0.00,VWS V14.00,2013-06-25 01:00:00,
2013-06-24 21:05:00,71.9,66.1,29.86,South,177,2.0,7.0,82,0.00,,---,0.07,0.00,VWS V14.00,2013-06-25 01:05:00,
2013-06-24 21:10:00,71.7,65.9,29.86,South,174,4.0,7.0,82,0.00,,---,0.07,0.00,VWS V14.00,2013-06-25 01:10:00,
2013-06-24 21:15:00,71.5,66.1,29.87,SSE,163,2.0,4.0,83,0.00,,---,0.07,0.00,VWS V14.00,2013-06-25 01:15:00,
2013-06-24 21:20:00,71.3,65.9,29.87,South,171,2.0,4.0,83,0.00,,---,0.07,0.00,VWS V14.00,2013-06-25 01:20:00,
2013-06-24 21:26:00,71.2,65.8,29.88,South,179,0.0,4.0,83,0.00,,---,0.07,0.00,VWS V14.00,2013-06-25 01:26:00,
2013-06-24 21:30:00,67.0,64.6,29.95,NNE,21,1.0,3.0,92,0.00,,---,0.58,0.00,VWS V14.00,2013-06-25 01:30:00,
2013-06-24 21:31:00,71.1,66.0,29.88,NNW,336,2.0,4.0,84,0.00,,---,0.07,0.00,VWS V14.00,2013-06-25 01:31:00,
2013-06-24 21:36:00,70.9,65.8,29.88,North,355,1.0,5.0,84,0.00,,---,0.07,0.00,VWS V14.00,2013-06-25 01:36:00,
2013-06-24 21:41:00,70.8,66.1,29.88,NNE,28,0.0,5.0,85,0.00,,---,0.07,0.00,VWS V14.00,2013-06-25 01:41:00,
2013-06-24 21:46:00,70.6,65.9,29.89,ENE,73,4.0,4.0,85,0.00,,---,0.07,0.00,VWS V14.00,2013-06-25 01:46:00,
2013-06-24 21:51:00,70.5,65.8,29.89,ENE,57,0.0,6.0,85,0.00,,---,0.07,0.00,VWS V14.00,2013-06-25 01:51:00,
2013-06-24 21:56:00,70.4,66.0,29.90,North,355,10.0,10.0,86,0.00,,---,0.07,0.00,VWS V14.00,2013-06-25 01:56:00,
2013-06-24 22:00:00,66.8,64.4,29.95,NNE,21,0.0,3.0,92,0.00,,---,0.58,0.00,VWS V14.00,2013-06-25 02:00:00,
2013-06-24 22:01:00,70.2,65.5,29.91,North,355,7.0,11.0,85,0.00,,---,0.07,0.00,VWS V14.00,2013-06-25 02:01:00,
2013-06-24 22:06:00,69.9,63.8,29.92,North,5,9.0,16.0,81,0.00,,---,0.07,0.00,VWS V14.00,2013-06-25 02:06:00,
2013-06-24 22:11:00,69.6,63.5,29.93,NNE,30,5.0,16.0,81,0.00,,---,0.07,0.00,VWS V14.00,2013-06-25 02:11:00,
2013-06-24 22:16:00,69.2,63.1,29.94,WNW,302,6.0,8.0,81,0.00,,---,0.07,0.00,VWS V14.00,2013-06-25 02:16:00,
2013-06-24 22:21:00,68.5,63.5,29.94,North,10,4.0,11.0,84,0.04,,---,0.11,0.00,VWS V14.00,2013-06-25 02:21:00,
2013-06-24 22:26:00,67.4,63.1,29.93,NNE,26,4.0,11.0,86,0.16,,---,0.23,0.00,VWS V14.00,2013-06-25 02:26:00,
2013-06-24 22:30:00,68.1,65.1,29.94,SW,229,2.0,7.0,90,0.00,,---,0.58,0.00,VWS V14.00,2013-06-25 02:30:00,
2013-06-24 22:31:00,66.8,62.8,29.93,North,5,3.0,11.0,87,0.17,,---,0.24,0.00,VWS V14.00,2013-06-25 02:31:00,
2013-06-24 22:37:00,66.5,62.8,29.92,East,92,2.0,11.0,88,0.19,,---,0.26,0.00,VWS V14.00,2013-06-25 02:37:00,
2013-06-24 22:42:00,66.3,63.0,29.91,ESE,109,1.0,11.0,89,0.19,,---,0.26,0.00,VWS V14.00,2013-06-25 02:42:00,
2013-06-24 22:47:00,66.1,62.8,29.92,ESE,109,0.0,1.0,89,0.19,,---,0.26,0.00,VWS V14.00,2013-06-25 02:47:00,
2013-06-24 22:52:00,66.1,62.8,29.91,ESE,109,0.0,1.0,89,0.19,,---,0.26,0.00,VWS V14.00,2013-06-25 02:52:00,
2013-06-24 22:57:00,66.1,63.1,29.90,ESE,109,1.0,1.0,90,0.19,,---,0.26,0.00,VWS V14.00,2013-06-25 02:57:00,
2013-06-24 23:00:00,68.5,64.2,29.94,NE,43,0.0,7.0,86,0.00,,---,0.58,0.00,VWS V14.00,2013-06-25 03:00:00,
2013-06-24 23:02:00,65.9,62.9,29.89,ESE,109,0.0,2.0,90,0.19,,---,0.26,0.00,VWS V14.00,2013-06-25 03:02:00,
2013-06-24 23:07:00,65.8,62.8,29.89,SSE,159,0.0,5.0,90,0.19,,---,0.26,0.00,VWS V14.00,2013-06-25 03:07:00,
2013-06-24 23:12:00,65.9,63.2,29.89,East,96,0.0,5.0,91,0.19,,---,0.26,0.00,VWS V14.00,2013-06-25 03:12:00,
2013-06-24 23:18:00,65.9,63.2,29.89,East,96,0.0,1.0,91,0.19,,---,0.26,0.00,VWS V14.00,2013-06-25 03:18:00,
2013-06-24 23:23:00,65.9,63.2,29.90,East,96,0.0,1.0,91,0.19,,---,0.26,0.00,VWS V14.00,2013-06-25 03:23:00,
2013-06-24 23:28:00,65.8,63.1,29.89,East,96,0.0,2.0,91,0.19,,---,0.26,0.00,VWS V14.00,2013-06-25 03:28:00,
2013-06-24 23:30:00,66.5,63.2,29.93,NE,42,0.0,4.0,89,0.00,,---,0.58,0.00,VWS V14.00,2013-06-25 03:30:00,
2013-06-24 23:33:00,65.7,63.0,29.89,East,91,0.0,3.0,91,0.19,,---,0.26,0.00,VWS V14.00,2013-06-25 03:33:00,
2013-06-24 23:38:00,65.6,62.9,29.89,East,91,0.0,3.0,91,0.19,,---,0.26,0.00,VWS V14.00,2013-06-25 03:38:00,
2013-06-24 23:44:00,65.6,62.9,29.89,East,91,0.0,3.0,91,0.19,,---,0.26,0.00,VWS V14.00,2013-06-25 03:44:00,
2013-06-24 23:49:00,65.5,62.8,29.89,East,91,0.0,1.0,91,0.00,,---,0.26,0.00,VWS V14.00,2013-06-25 03:49:00,
2013-06-24 23:54:00,65.4,62.7,29.88,East,91,0.0,2.0,91,0.00,,---,0.26,0.00,VWS V14.00,2013-06-25 03:54:00,
2013-06-24 23:59:00,65.3,62.9,29.89,East,91,0.0,2.0,92,0.00,,---,0.26,0.00,VWS V14.00,2013-06-25 03:59:00,